createdAt,value
2022-09-21T00:00:30.289Z,102769.75
2022-09-21T00:02:57.786Z,102782.88
2022-09-21T00:05:25.244Z,102782.44
2022-09-21T00:07:52.423Z,102778.22
2022-09-21T00:10:20.771Z,102780.88
2022-09-21T00:12:48.803Z,102780.09
2022-09-21T00:15:19.427Z,102774.19
2022-09-21T00:17:47.688Z,102776.63
2022-09-21T00:20:15.224Z,102774.97
2022-09-21T00:22:41.918Z,102770.88
2022-09-21T00:25:09.547Z,102772.63
2022-09-21T00:27:36.813Z,102772.00
2022-09-21T00:30:04.313Z,102761.81
2022-09-21T00:32:32.571Z,102780.28
2022-09-21T00:35:00.471Z,102777.81
2022-09-21T00:37:27.645Z,102761.31
2022-09-21T00:39:54.515Z,102778.81
2022-09-21T00:42:24.014Z,102751.25
2022-09-21T00:44:51.019Z,102768.63
2022-09-21T00:47:22.194Z,102771.34
2022-09-21T00:49:51.910Z,102756.81
2022-09-21T00:52:19.780Z,102776.13
2022-09-21T00:54:56.501Z,102777.28
2022-09-21T00:57:27.335Z,102763.25
2022-09-21T00:59:57.589Z,102773.16
2022-09-21T01:02:24.715Z,102773.16
2022-09-21T01:04:56.108Z,102776.88
2022-09-21T01:07:28.442Z,102772.81
2022-09-21T01:09:58.801Z,102775.63
2022-09-21T01:13:02.221Z,102772.16
2022-09-21T01:16:05.670Z,102769.75
2022-09-21T01:18:39.364Z,102766.44
2022-09-21T01:21:17.185Z,102760.50
2022-09-21T01:24:05.725Z,102774.38
2022-09-21T01:26:56.840Z,102772.84
2022-09-21T01:29:32.944Z,102768.72
2022-09-21T01:32:12.779Z,102768.53
2022-09-21T01:34:54.273Z,102777.41
2022-09-21T01:37:31.100Z,102773.25
2022-09-21T01:40:03.001Z,102778.72
2022-09-21T01:42:31.895Z,102776.38
2022-09-21T01:45:03.538Z,102773.81
2022-09-21T01:47:31.542Z,102767.84
2022-09-21T01:50:02.814Z,102770.53
2022-09-21T01:52:40.169Z,102781.16
2022-09-21T01:55:12.344Z,102759.31
2022-09-21T01:57:51.269Z,102776.97
2022-09-21T02:00:17.937Z,102762.22
2022-09-21T02:03:29.527Z,102777.97
2022-09-21T02:05:58.184Z,102767.84
2022-09-21T02:08:26.826Z,102770.50
2022-09-21T02:10:54.952Z,102761.94
2022-09-21T02:13:27.602Z,102760.44
2022-09-21T02:16:12.372Z,102771.56
2022-09-21T02:18:57.667Z,102778.81
2022-09-21T02:21:34.207Z,102771.91
2022-09-21T02:24:23.484Z,102762.41
2022-09-21T02:27:06.765Z,102772.94
2022-09-21T02:29:49.381Z,102785.41
2022-09-21T02:32:28.755Z,102767.22
2022-09-21T02:35:28.333Z,102779.31
2022-09-21T02:38:06.405Z,102779.66
2022-09-21T02:40:36.098Z,102765.72
2022-09-21T02:43:09.147Z,102774.56
2022-09-21T02:45:45.721Z,102770.28
2022-09-21T02:48:18.180Z,102772.19
2022-09-21T02:50:48.941Z,102774.72
2022-09-21T02:53:20.158Z,102770.41
2022-09-21T02:55:47.085Z,102768.09
2022-09-21T02:58:16.453Z,102761.94
2022-09-21T03:00:43.027Z,102769.88
2022-09-21T03:03:18.055Z,102769.22
2022-09-21T03:05:47.844Z,102763.06
2022-09-21T03:08:15.206Z,102766.81
2022-09-21T03:10:41.802Z,102773.69
2022-09-21T03:13:09.250Z,102766.88
2022-09-21T03:15:40.025Z,102774.72
2022-09-21T03:18:11.705Z,102784.50
2022-09-21T03:20:46.075Z,102779.50
2022-09-21T03:23:13.008Z,102786.47
2022-09-21T03:25:39.668Z,102784.84
2022-09-21T03:28:06.106Z,102739.16
2022-09-21T03:30:32.874Z,102787.59
2022-09-21T03:32:59.463Z,102790.38
2022-09-21T03:35:26.683Z,102790.41
2022-09-21T03:37:55.101Z,102791.38
2022-09-21T03:40:22.051Z,102786.22
2022-09-21T03:42:48.526Z,102801.19
2022-09-21T03:45:15.120Z,102803.94
2022-09-21T03:47:42.174Z,102781.38
2022-09-21T03:50:10.195Z,102792.72
2022-09-21T03:52:37.932Z,102793.59
2022-09-21T03:55:06.517Z,102806.78
2022-09-21T03:57:34.376Z,102805.97
2022-09-21T04:00:03.748Z,102797.31
2022-09-21T04:02:30.370Z,102795.63
2022-09-21T04:04:56.853Z,102800.91
2022-09-21T04:07:23.433Z,102788.75
2022-09-21T04:09:49.866Z,102793.19
2022-09-21T04:12:16.306Z,102794.91
2022-09-21T04:14:42.925Z,102797.53
2022-09-21T04:17:09.380Z,102788.19
2022-09-21T04:19:35.838Z,102781.25
2022-09-21T04:22:02.318Z,102792.56
2022-09-21T04:24:29.078Z,102761.41
2022-09-21T04:26:55.550Z,102782.34
2022-09-21T04:29:22.260Z,102785.84
2022-09-21T04:31:48.714Z,102779.06
2022-09-21T04:34:15.143Z,102787.72
2022-09-21T04:36:41.748Z,102782.72
2022-09-21T04:39:08.198Z,102786.22
2022-09-21T04:41:34.754Z,102793.34
2022-09-21T04:44:01.482Z,102780.19
2022-09-21T04:46:28.101Z,102778.53
2022-09-21T04:48:54.629Z,102795.13
2022-09-21T04:51:21.239Z,102795.34
2022-09-21T04:53:47.710Z,102789.47
2022-09-21T04:56:15.258Z,102804.22
2022-09-21T04:58:41.835Z,102802.56
2022-09-21T05:01:08.372Z,102802.59
2022-09-21T05:03:35.090Z,102779.25
2022-09-21T05:06:02.749Z,102799.25
2022-09-21T05:08:48.047Z,102810.72
2022-09-21T05:11:21.048Z,102809.91
2022-09-21T05:13:48.122Z,102804.84
2022-09-21T05:16:15.412Z,102814.56
2022-09-21T05:18:42.042Z,102820.72
2022-09-21T05:21:11.120Z,102825.94
2022-09-21T05:23:37.661Z,102812.09
2022-09-21T05:26:04.412Z,102820.72
2022-09-21T05:28:31.103Z,102819.75
2022-09-21T05:31:24.973Z,102824.19
2022-09-21T05:34:37.009Z,102829.38
2022-09-21T05:37:12.293Z,102812.81
2022-09-21T05:39:38.958Z,102792.06
2022-09-21T05:42:06.056Z,102807.75
2022-09-21T05:44:32.716Z,102825.06
2022-09-21T05:47:23.371Z,102828.59
2022-09-21T05:49:59.311Z,102818.13
2022-09-21T05:52:34.690Z,102835.50
2022-09-21T05:55:25.311Z,102818.00
2022-09-21T05:57:59.333Z,102831.00
2022-09-21T06:00:27.418Z,102813.66
2022-09-21T06:03:32.262Z,102841.25
2022-09-21T06:05:59.317Z,102844.53
2022-09-21T06:08:26.212Z,102844.38
2022-09-21T06:10:53.575Z,102849.34
2022-09-21T06:13:20.351Z,102834.44
2022-09-21T06:15:47.115Z,102813.75
2022-09-21T06:18:17.700Z,102847.28
2022-09-21T06:20:45.341Z,102847.16
2022-09-21T06:23:13.909Z,102860.34
2022-09-21T06:25:40.510Z,102841.41
2022-09-21T06:28:12.475Z,102854.34
2022-09-21T06:30:40.869Z,102849.34
2022-09-21T06:33:08.395Z,102840.22
2022-09-21T06:35:36.253Z,102850.41
2022-09-21T06:38:07.847Z,102855.88
2022-09-21T06:40:36.070Z,102857.81
2022-09-21T06:43:04.365Z,102855.72
2022-09-21T06:45:31.106Z,102859.16
2022-09-21T06:47:58.055Z,102861.28
2022-09-21T06:50:24.785Z,102858.66
2022-09-21T06:52:51.319Z,102862.84
2022-09-21T06:55:17.827Z,102861.81
2022-09-21T06:57:45.021Z,102860.81
2022-09-21T07:00:13.581Z,102864.19
2022-09-21T07:02:44.708Z,102862.09
2022-09-21T07:05:11.340Z,102841.69
2022-09-21T07:07:37.911Z,102855.88
2022-09-21T07:10:13.107Z,102864.16
2022-09-21T07:12:41.652Z,102868.03
2022-09-21T07:15:09.171Z,102864.25
2022-09-21T07:17:37.388Z,102864.72
2022-09-21T07:20:05.802Z,102856.72
2022-09-21T07:22:32.784Z,102861.56
2022-09-21T07:24:59.319Z,102847.38
2022-09-21T07:27:28.158Z,102846.16
2022-09-21T07:29:54.674Z,102854.19
2022-09-21T07:32:21.331Z,102854.56
2022-09-21T07:34:48.371Z,102857.34
2022-09-21T07:37:15.170Z,102856.16
2022-09-21T07:39:41.700Z,102857.19
2022-09-21T07:42:08.716Z,102849.06
2022-09-21T07:44:35.193Z,102855.63
2022-09-21T07:47:03.231Z,102863.84
2022-09-21T07:49:29.803Z,102849.50
2022-09-21T07:52:01.403Z,102852.34
2022-09-21T07:54:30.425Z,102846.91
2022-09-21T07:57:15.566Z,102853.47
2022-09-21T07:59:42.135Z,102852.16
2022-09-21T08:02:08.654Z,102842.66
2022-09-21T08:04:35.230Z,102834.94
2022-09-21T08:07:01.769Z,102842.09
2022-09-21T08:09:28.252Z,102840.66
2022-09-21T08:11:54.968Z,102848.03
2022-09-21T08:14:26.099Z,102803.81
2022-09-21T08:16:53.145Z,102848.50
2022-09-21T08:19:20.336Z,102846.94
2022-09-21T08:21:51.467Z,102848.38
2022-09-21T08:24:21.342Z,102851.97
2022-09-21T08:26:50.033Z,102857.91
2022-09-21T08:29:16.519Z,102853.84
2022-09-21T08:31:43.389Z,102859.28
2022-09-21T08:34:10.045Z,102859.63
2022-09-21T08:36:36.520Z,102859.41
2022-09-21T08:39:03.041Z,102845.00
2022-09-21T08:41:42.991Z,102862.56
2022-09-21T08:44:13.278Z,102866.19
2022-09-21T08:46:41.790Z,102875.31
2022-09-21T08:49:12.640Z,102862.56
2022-09-21T08:51:50.377Z,102860.84
2022-09-21T08:54:27.520Z,102870.75
2022-09-21T08:57:05.075Z,102866.88
2022-09-21T08:59:32.245Z,102879.13
2022-09-21T09:02:24.814Z,102869.38
2022-09-21T09:04:57.375Z,102874.63
2022-09-21T09:07:50.058Z,102877.53
2022-09-21T09:10:33.803Z,102866.69
2022-09-21T09:13:15.716Z,102862.28
2022-09-21T09:15:56.306Z,102872.00
2022-09-21T09:18:47.594Z,102867.31
2022-09-21T09:21:31.323Z,102881.59
2022-09-21T09:24:03.093Z,102871.88
2022-09-21T09:26:45.121Z,102867.03
2022-09-21T09:29:33.812Z,102875.13
2022-09-21T09:32:01.707Z,102867.13
2022-09-21T09:34:36.473Z,102849.38
2022-09-21T09:37:12.451Z,102865.22
2022-09-21T09:39:42.222Z,102868.47
2022-09-21T09:42:30.442Z,102873.06
2022-09-21T09:45:15.107Z,102873.41
2022-09-21T09:48:09.249Z,102875.25
2022-09-21T09:50:38.908Z,102863.34
2022-09-21T09:53:16.310Z,102867.16
2022-09-21T09:55:47.864Z,102863.22
2022-09-21T09:58:39.046Z,102866.13
2022-09-21T10:01:06.431Z,102867.03
2022-09-21T10:03:33.142Z,102863.50
2022-09-21T10:05:59.738Z,102829.97
2022-09-21T10:08:42.813Z,102865.16
2022-09-21T10:11:14.486Z,102870.19
2022-09-21T10:13:47.285Z,102870.03
2022-09-21T10:16:23.033Z,102845.56
2022-09-21T10:18:52.895Z,102859.50
2022-09-21T10:21:35.844Z,102856.81
2022-09-21T10:24:22.337Z,102855.69
2022-09-21T10:26:56.213Z,102858.66
2022-09-21T10:29:22.644Z,102858.09
2022-09-21T10:32:14.558Z,102857.88
2022-09-21T10:34:59.663Z,102845.97
2022-09-21T10:37:35.855Z,102827.63
2022-09-21T10:40:02.562Z,102850.97
2022-09-21T10:42:36.686Z,102842.09
2022-09-21T10:45:19.793Z,102856.50
2022-09-21T10:47:57.083Z,102845.91
2022-09-21T10:50:25.810Z,102849.13
2022-09-21T10:52:59.660Z,102849.72
2022-09-21T10:55:29.353Z,102838.44
2022-09-21T10:57:57.089Z,102843.63
2022-09-21T11:00:29.748Z,102845.44
2022-09-21T11:03:01.222Z,102795.88
2022-09-21T11:05:32.772Z,102827.91
2022-09-21T11:08:12.224Z,102831.53
2022-09-21T11:11:05.021Z,102830.06
2022-09-21T11:13:36.649Z,102827.25
2022-09-21T11:16:16.801Z,102834.88
2022-09-21T11:19:10.335Z,102832.78
2022-09-21T11:22:08.333Z,102815.63
2022-09-21T11:24:52.037Z,102834.22
2022-09-21T11:27:33.495Z,102824.34
2022-09-21T11:30:21.195Z,102817.75
2022-09-21T11:33:05.121Z,102814.63
2022-09-21T11:35:43.557Z,102819.09
2022-09-21T11:38:42.665Z,102806.44
2022-09-21T11:41:18.340Z,102818.31
2022-09-21T11:44:01.902Z,102811.25
2022-09-21T11:46:48.005Z,102810.16
2022-09-21T11:49:28.342Z,102804.03
2022-09-21T11:52:22.742Z,102804.88
2022-09-21T11:55:18.036Z,102797.25
2022-09-21T11:57:55.087Z,102806.94
2022-09-21T12:00:23.342Z,102792.88
2022-09-21T12:03:11.701Z,102800.06
2022-09-21T12:06:15.333Z,102785.63
2022-09-21T12:09:26.165Z,102790.22
2022-09-21T12:12:13.903Z,102795.56
2022-09-21T12:15:08.548Z,102793.97
2022-09-21T12:17:45.795Z,102793.97
2022-09-21T12:20:50.939Z,102796.34
2022-09-21T12:23:23.307Z,102785.75
2022-09-21T12:25:53.631Z,102776.31
2022-09-21T12:28:41.709Z,102776.41
2022-09-21T12:31:51.656Z,102787.88
2022-09-21T12:34:22.699Z,102778.16
2022-09-21T12:37:10.256Z,102777.44
2022-09-21T12:39:54.277Z,102761.00
2022-09-21T12:42:40.405Z,102767.50
2022-09-21T12:45:19.917Z,102755.06
2022-09-21T12:47:56.788Z,102765.34
2022-09-21T12:50:34.769Z,102749.44
2022-09-21T12:53:01.814Z,102754.50
2022-09-21T12:55:48.943Z,102768.41
2022-09-21T12:58:19.933Z,102762.13
2022-09-21T13:00:55.114Z,102750.22
2022-09-21T13:03:41.432Z,102760.00
2022-09-21T13:06:35.554Z,102753.75
2022-09-21T13:09:06.190Z,102754.22
2022-09-21T13:11:35.328Z,102747.91
2022-09-21T13:14:04.617Z,102733.84
2022-09-21T13:16:32.365Z,102745.41
2022-09-21T13:19:26.949Z,102751.84
2022-09-21T13:22:19.973Z,102746.50
2022-09-21T13:25:01.378Z,102753.47
2022-09-21T13:28:04.152Z,102749.53
2022-09-21T13:30:32.545Z,102748.31
2022-09-21T13:32:59.610Z,102728.06
2022-09-21T13:35:48.173Z,102745.53
2022-09-21T13:38:34.145Z,102730.59
2022-09-21T13:41:03.740Z,102742.31
2022-09-21T13:44:04.195Z,102736.81
2022-09-21T13:46:35.038Z,102731.38
2022-09-21T13:49:16.664Z,102734.91
2022-09-21T13:52:22.741Z,102727.94
2022-09-21T13:55:19.143Z,102717.88
2022-09-21T13:57:50.252Z,102715.66
2022-09-21T14:00:20.011Z,102722.31
2022-09-21T14:02:57.815Z,102713.94
2022-09-21T14:05:43.263Z,102714.56
2022-09-21T14:08:15.835Z,102709.69
2022-09-21T14:11:00.414Z,102706.66
2022-09-21T14:13:34.789Z,102699.97
2022-09-21T14:16:29.114Z,102710.38
2022-09-21T14:18:56.874Z,102703.41
2022-09-21T14:21:23.839Z,102692.97
2022-09-21T14:24:19.061Z,102709.75
2022-09-21T14:27:04.014Z,102691.03
2022-09-21T14:29:53.232Z,102699.81
2022-09-21T14:32:26.318Z,102698.44
2022-09-21T14:35:18.691Z,102680.31
2022-09-21T14:37:52.031Z,102673.06
2022-09-21T14:40:25.118Z,102694.97
2022-09-21T14:42:54.580Z,102679.72
2022-09-21T14:45:45.913Z,102684.28
2022-09-21T14:48:42.637Z,102678.03
2022-09-21T14:51:38.384Z,102683.25
2022-09-21T14:54:33.578Z,102680.94
2022-09-21T14:57:34.797Z,102671.19
2022-09-21T15:00:21.823Z,102682.09
2022-09-21T15:02:56.961Z,102662.88
2022-09-21T15:05:32.880Z,102672.66
2022-09-21T15:08:36.878Z,102671.34
2022-09-21T15:11:09.132Z,102672.59
2022-09-21T15:14:13.686Z,102676.59
2022-09-21T15:16:46.930Z,102649.59
2022-09-21T15:19:21.008Z,102655.53
2022-09-21T15:21:53.069Z,102656.69
2022-09-21T15:24:21.601Z,102656.09
2022-09-21T15:26:51.519Z,102647.66
2022-09-21T15:29:29.331Z,102643.50
2022-09-21T15:31:56.187Z,102645.91
2022-09-21T15:34:23.486Z,102641.00
2022-09-21T15:36:52.287Z,102644.84
2022-09-21T15:39:31.773Z,102645.06
2022-09-21T15:42:10.668Z,102653.94
2022-09-21T15:44:39.362Z,102643.38
2022-09-21T15:47:11.348Z,102642.09
2022-09-21T15:49:41.812Z,102650.25
2022-09-21T15:52:14.543Z,102650.28
2022-09-21T15:54:56.752Z,102635.56
2022-09-21T15:57:24.576Z,102646.91
2022-09-21T15:59:51.856Z,102620.13
2022-09-21T16:02:22.395Z,102642.06
2022-09-21T16:04:51.018Z,102632.56
2022-09-21T16:07:35.427Z,102626.03
2022-09-21T16:10:23.767Z,102624.78
2022-09-21T16:12:50.430Z,102602.72
2022-09-21T16:15:29.283Z,102636.59
2022-09-21T16:18:05.168Z,102629.97
2022-09-21T16:20:50.624Z,102619.69
2022-09-21T16:23:26.858Z,102629.44
2022-09-21T16:26:01.262Z,102632.75
2022-09-21T16:28:34.692Z,102632.59
2022-09-21T16:31:22.820Z,102628.84
2022-09-21T16:33:49.845Z,102632.38
2022-09-21T16:36:19.578Z,102630.25
2022-09-21T16:38:50.517Z,102630.28
2022-09-21T16:41:17.356Z,102629.50
2022-09-21T16:43:44.822Z,102633.16
2022-09-21T16:46:11.702Z,102631.41
2022-09-21T16:48:38.592Z,102637.00
2022-09-21T16:51:22.371Z,102644.16
2022-09-21T16:53:48.852Z,102639.72
2022-09-21T16:56:16.299Z,102641.16
2022-09-21T16:58:44.381Z,102633.34
2022-09-21T17:01:18.650Z,102640.19
2022-09-21T17:03:47.211Z,102644.56
2022-09-21T17:06:21.720Z,102644.97
2022-09-21T17:08:49.510Z,102640.19
2022-09-21T17:11:20.125Z,102602.81
2022-09-21T17:13:50.623Z,102644.41
2022-09-21T17:16:18.360Z,102645.25
2022-09-21T17:18:49.026Z,102614.03
2022-09-21T17:21:16.517Z,102645.28
2022-09-21T17:23:43.334Z,102644.63
2022-09-21T17:26:21.201Z,102640.28
2022-09-21T17:28:47.935Z,102635.97
2022-09-21T17:31:18.864Z,102650.56
2022-09-21T17:33:47.827Z,102643.13
2022-09-21T17:36:15.197Z,102640.78
2022-09-21T17:38:44.950Z,102612.59
2022-09-21T17:41:29.001Z,102640.44
2022-09-21T17:44:17.479Z,102644.84
2022-09-21T17:47:09.348Z,102648.88
2022-09-21T17:49:36.732Z,102642.53
2022-09-21T17:52:22.558Z,102641.25
2022-09-21T17:54:51.229Z,102642.81
2022-09-21T17:57:46.165Z,102636.16
2022-09-21T18:00:24.503Z,102637.47
2022-09-21T18:02:52.666Z,102637.59
2022-09-21T18:05:25.251Z,102634.25
2022-09-21T18:07:52.880Z,102632.06
2022-09-21T18:10:21.535Z,102636.56
2022-09-21T18:13:14.143Z,102645.44
2022-09-21T18:16:04.704Z,102631.38
2022-09-21T18:18:34.297Z,102649.38
2022-09-21T18:21:05.985Z,102641.03
2022-09-21T18:24:00.304Z,102655.34
2022-09-21T18:26:26.944Z,102667.00
2022-09-21T18:28:59.374Z,102641.72
2022-09-21T18:31:42.276Z,102653.16
2022-09-21T18:34:21.077Z,102654.41
2022-09-21T18:37:10.480Z,102646.31
2022-09-21T18:39:49.301Z,102653.69
2022-09-21T18:42:40.452Z,102656.06
2022-09-21T18:45:22.951Z,102654.31
2022-09-21T18:48:34.617Z,102656.41
2022-09-21T18:51:16.182Z,102659.56
2022-09-21T18:53:55.959Z,102658.72
2022-09-21T18:56:24.801Z,102665.94
2022-09-21T18:58:51.876Z,102656.59
2022-09-21T19:01:21.888Z,102663.44
2022-09-21T19:03:49.746Z,102661.91
2022-09-21T19:06:37.697Z,102666.91
2022-09-21T19:09:17.450Z,102658.91
2022-09-21T19:11:53.184Z,102678.25
2022-09-21T19:14:47.093Z,102675.75
2022-09-21T19:17:36.985Z,102667.16
2022-09-21T19:20:30.911Z,102671.84
2022-09-21T19:23:11.960Z,102679.25
2022-09-21T19:25:49.355Z,102680.56
2022-09-21T19:28:25.951Z,102690.63
2022-09-21T19:31:02.116Z,102675.00
2022-09-21T19:33:49.512Z,102677.75
2022-09-21T19:36:17.585Z,102682.06
2022-09-21T19:38:44.344Z,102670.13
2022-09-21T19:41:32.802Z,102674.31
2022-09-21T19:44:02.651Z,102674.06
2022-09-21T19:46:59.299Z,102680.19
2022-09-21T19:49:41.396Z,102680.25
2022-09-21T19:52:14.797Z,102663.47
2022-09-21T19:55:00.443Z,102678.28
2022-09-21T19:57:45.972Z,102665.34
2022-09-21T20:00:18.810Z,102681.50
2022-09-21T20:03:13.889Z,102680.91
2022-09-21T20:05:54.973Z,102686.03
2022-09-21T20:08:38.738Z,102678.31
2022-09-21T20:11:10.902Z,102681.13
2022-09-21T20:13:57.875Z,102686.38
2022-09-21T20:16:39.002Z,102692.47
2022-09-21T20:19:17.490Z,102687.28
2022-09-21T20:21:47.101Z,102675.25
2022-09-21T20:24:26.607Z,102677.22
2022-09-21T20:26:53.612Z,102692.78
2022-09-21T20:29:21.845Z,102687.78
2022-09-21T20:31:50.852Z,102688.25
2022-09-21T20:34:17.497Z,102678.97
2022-09-21T20:36:44.303Z,102676.94
2022-09-21T20:39:10.811Z,102677.72
2022-09-21T20:41:40.775Z,102682.25
2022-09-21T20:44:12.163Z,102680.97
2022-09-21T20:46:38.616Z,102677.09
2022-09-21T20:49:05.452Z,102666.09
2022-09-21T20:51:33.878Z,102672.13
2022-09-21T20:54:02.287Z,102679.16
2022-09-21T20:56:30.502Z,102680.03
2022-09-21T20:58:57.433Z,102666.53
2022-09-21T21:01:24.626Z,102665.81
2022-09-21T21:03:51.657Z,102677.97
2022-09-21T21:06:18.716Z,102674.47
2022-09-21T21:08:46.162Z,102665.88
2022-09-21T21:11:14.481Z,102670.06
2022-09-21T21:13:41.684Z,102670.72
2022-09-21T21:16:12.217Z,102677.38
2022-09-21T21:18:40.844Z,102656.56
2022-09-21T21:21:07.715Z,102659.16
2022-09-21T21:23:54.249Z,102667.75
2022-09-21T21:26:23.938Z,102671.19
2022-09-21T21:28:56.015Z,102662.44
2022-09-21T21:31:23.095Z,102671.44
2022-09-21T21:33:49.552Z,102650.97
2022-09-21T21:36:16.162Z,102671.94
2022-09-21T21:38:43.345Z,102669.66
2022-09-21T21:41:13.049Z,102672.47
2022-09-21T21:43:43.106Z,102670.13
2022-09-21T21:46:10.760Z,102681.53
2022-09-21T21:48:39.005Z,102679.03
2022-09-21T21:51:06.871Z,102660.38
2022-09-21T21:53:36.252Z,102660.53
2022-09-21T21:56:10.896Z,102676.09
2022-09-21T21:58:38.329Z,102658.97
2022-09-21T22:01:20.945Z,102670.91
2022-09-21T22:03:52.220Z,102675.44
2022-09-21T22:06:19.150Z,102667.47
2022-09-21T22:08:45.766Z,102649.47
2022-09-21T22:11:12.336Z,102653.91
2022-09-21T22:13:39.838Z,102665.25
2022-09-21T22:16:09.185Z,102650.53
2022-09-21T22:18:36.079Z,102656.56
2022-09-21T22:21:08.090Z,102669.25
2022-09-21T22:23:34.861Z,102649.47
2022-09-21T22:26:16.052Z,102659.34
2022-09-21T22:28:45.398Z,102658.34
2022-09-21T22:31:14.712Z,102658.78
2022-09-21T22:33:41.476Z,102664.66
2022-09-21T22:36:14.354Z,102672.06
2022-09-21T22:38:43.074Z,102680.75
2022-09-21T22:41:14.478Z,102673.72
2022-09-21T22:43:41.282Z,102668.75
2022-09-21T22:46:07.852Z,102661.84
2022-09-21T22:48:35.164Z,102648.25
2022-09-21T22:51:02.281Z,102669.09
2022-09-21T22:53:28.850Z,102662.28
2022-09-21T22:56:06.008Z,102669.25
2022-09-21T22:58:34.772Z,102667.69
2022-09-21T23:01:07.431Z,102665.03
2022-09-21T23:03:34.666Z,102649.53
2022-09-21T23:06:01.529Z,102656.63
2022-09-21T23:08:29.310Z,102663.63
2022-09-21T23:10:56.917Z,102660.28
2022-09-21T23:13:23.686Z,102654.41
2022-09-21T23:15:50.901Z,102660.72
2022-09-21T23:18:17.370Z,102655.69
2022-09-21T23:20:43.881Z,102650.91
2022-09-21T23:23:10.507Z,102644.38
2022-09-21T23:25:37.365Z,102643.44
2022-09-21T23:28:03.889Z,102647.69
2022-09-21T23:30:30.441Z,102650.38
2022-09-21T23:32:56.936Z,102643.56
2022-09-21T23:35:23.397Z,102653.03
2022-09-21T23:37:50.060Z,102644.38
2022-09-21T23:40:16.671Z,102637.53
2022-09-21T23:42:43.191Z,102635.94
2022-09-21T23:45:09.858Z,102630.81
2022-09-21T23:47:36.362Z,102599.31
2022-09-21T23:50:02.830Z,102639.09
2022-09-21T23:52:30.077Z,102635.66
2022-09-21T23:54:56.492Z,102641.28
2022-09-21T23:57:22.930Z,102647.44
2022-09-21T23:59:50.292Z,102654.53
